sensor_id;sensor_type;location;lat;lon;timestamp;pressure;altitude;pressure_sealevel;temperature;humidity
28510;BME280;15723;55.684;37.928;2023-03-12T00:01:38;97881.47;;;2.67;97.72
28510;BME280;15723;55.684;37.928;2023-03-12T00:04:05;97878.69;;;2.54;97.39
28510;BME280;15723;55.684;37.928;2023-03-12T00:06:32;97874.38;;;2.66;97.75
28510;BME280;15723;55.684;37.928;2023-03-12T00:08:58;97873.13;;;2.71;97.67
28510;BME280;15723;55.684;37.928;2023-03-12T00:11:27;97854.47;;;2.70;97.67
28510;BME280;15723;55.684;37.928;2023-03-12T00:13:56;97853.31;;;2.74;97.45
28510;BME280;15723;55.684;37.928;2023-03-12T00:16:23;97846.13;;;2.74;96.99
28510;BME280;15723;55.684;37.928;2023-03-12T00:18:51;97841.63;;;2.75;96.99
28510;BME280;15723;55.684;37.928;2023-03-12T00:21:18;97835.00;;;2.80;97.09
28510;BME280;15723;55.684;37.928;2023-03-12T00:23:46;97833.75;;;2.86;97.41
28510;BME280;15723;55.684;37.928;2023-03-12T00:26:13;97827.06;;;2.79;97.08
28510;BME280;15723;55.684;37.928;2023-03-12T00:28:41;97815.94;;;2.85;97.25
28510;BME280;15723;55.684;37.928;2023-03-12T00:31:17;97809.06;;;2.81;97.39
28510;BME280;15723;55.684;37.928;2023-03-12T00:33:44;97797.09;;;2.87;97.71
28510;BME280;15723;55.684;37.928;2023-03-12T00:36:11;97793.69;;;2.97;97.96
28510;BME280;15723;55.684;37.928;2023-03-12T00:38:37;97783.28;;;2.93;98.19
28510;BME280;15723;55.684;37.928;2023-03-12T00:41:04;97790.66;;;2.89;98.09
28510;BME280;15723;55.684;37.928;2023-03-12T00:43:30;97780.59;;;2.93;98.40
28510;BME280;15723;55.684;37.928;2023-03-12T00:45:56;97770.34;;;2.99;98.97
28510;BME280;15723;55.684;37.928;2023-03-12T00:48:22;97766.00;;;2.84;98.70
28510;BME280;15723;55.684;37.928;2023-03-12T00:50:49;97758.34;;;3.05;99.11
28510;BME280;15723;55.684;37.928;2023-03-12T00:53:15;97759.41;;;3.02;99.44
28510;BME280;15723;55.684;37.928;2023-03-12T00:55:41;97753.91;;;2.91;99.14
28510;BME280;15723;55.684;37.928;2023-03-12T00:58:07;97754.28;;;3.12;99.08
28510;BME280;15723;55.684;37.928;2023-03-12T01:00:33;97742.28;;;3.18;99.31
28510;BME280;15723;55.684;37.928;2023-03-12T01:03:00;97744.84;;;3.19;99.05
28510;BME280;15723;55.684;37.928;2023-03-12T01:05:27;97752.78;;;3.08;99.02
28510;BME280;15723;55.684;37.928;2023-03-12T01:07:53;97742.50;;;3.27;99.01
28510;BME280;15723;55.684;37.928;2023-03-12T01:10:20;97729.19;;;3.26;99.01
28510;BME280;15723;55.684;37.928;2023-03-12T01:12:46;97736.81;;;3.32;98.67
28510;BME280;15723;55.684;37.928;2023-03-12T01:15:15;97722.03;;;3.39;98.66
28510;BME280;15723;55.684;37.928;2023-03-12T01:17:42;97728.34;;;3.25;98.45
28510;BME280;15723;55.684;37.928;2023-03-12T01:20:09;97719.00;;;3.18;98.17
28510;BME280;15723;55.684;37.928;2023-03-12T01:22:38;97713.13;;;3.38;98.36
28510;BME280;15723;55.684;37.928;2023-03-12T01:25:05;97707.66;;;3.40;98.41
28510;BME280;15723;55.684;37.928;2023-03-12T01:27:31;97715.06;;;3.36;98.17
28510;BME280;15723;55.684;37.928;2023-03-12T01:29:58;97699.41;;;3.43;98.23
28510;BME280;15723;55.684;37.928;2023-03-12T01:32:24;97690.81;;;3.38;98.08
28510;BME280;15723;55.684;37.928;2023-03-12T01:34:50;97686.75;;;3.45;98.48
28510;BME280;15723;55.684;37.928;2023-03-12T01:37:16;97685.53;;;3.49;98.36
28510;BME280;15723;55.684;37.928;2023-03-12T01:39:42;97695.84;;;3.42;98.38
28510;BME280;15723;55.684;37.928;2023-03-12T01:42:09;97680.41;;;3.46;98.53
28510;BME280;15723;55.684;37.928;2023-03-12T01:44:55;97671.91;;;3.52;98.36
28510;BME280;15723;55.684;37.928;2023-03-12T01:47:23;97665.72;;;3.39;97.85
28510;BME280;15723;55.684;37.928;2023-03-12T01:49:52;97668.03;;;3.56;98.07
28510;BME280;15723;55.684;37.928;2023-03-12T01:52:32;97661.09;;;3.54;97.92
28510;BME280;15723;55.684;37.928;2023-03-12T01:55:05;97647.66;;;3.54;97.67
28510;BME280;15723;55.684;37.928;2023-03-12T01:57:41;97651.81;;;3.70;97.72
28510;BME280;15723;55.684;37.928;2023-03-12T02:00:11;97646.78;;;3.79;97.66
28510;BME280;15723;55.684;37.928;2023-03-12T02:02:42;97641.19;;;3.69;96.98
28510;BME280;15723;55.684;37.928;2023-03-12T02:05:18;97628.94;;;3.78;97.19
28510;BME280;15723;55.684;37.928;2023-03-12T02:07:47;97631.81;;;3.87;96.77
28510;BME280;15723;55.684;37.928;2023-03-12T02:10:15;97622.00;;;3.99;96.67
28510;BME280;15723;55.684;37.928;2023-03-12T02:12:41;97623.53;;;3.90;95.99
28510;BME280;15723;55.684;37.928;2023-03-12T02:15:08;97607.09;;;3.95;95.83
28510;BME280;15723;55.684;37.928;2023-03-12T02:17:36;97605.09;;;3.86;96.07
28510;BME280;15723;55.684;37.928;2023-03-12T02:20:23;97612.75;;;3.79;96.20
28510;BME280;15723;55.684;37.928;2023-03-12T02:23:08;97598.34;;;3.80;96.16
28510;BME280;15723;55.684;37.928;2023-03-12T02:25:43;97599.16;;;3.93;95.83
28510;BME280;15723;55.684;37.928;2023-03-12T02:28:14;97585.22;;;3.88;95.55
28510;BME280;15723;55.684;37.928;2023-03-12T02:30:44;97583.28;;;3.90;95.80
28510;BME280;15723;55.684;37.928;2023-03-12T02:33:12;97583.56;;;3.98;96.14
28510;BME280;15723;55.684;37.928;2023-03-12T02:35:39;97582.97;;;4.06;96.07
28510;BME280;15723;55.684;37.928;2023-03-12T02:38:39;97573.16;;;3.94;95.84
28510;BME280;15723;55.684;37.928;2023-03-12T02:41:17;97570.22;;;3.86;95.96
28510;BME280;15723;55.684;37.928;2023-03-12T02:43:50;97559.34;;;3.87;96.21
28510;BME280;15723;55.684;37.928;2023-03-12T02:46:16;97559.63;;;3.95;96.52
28510;BME280;15723;55.684;37.928;2023-03-12T02:48:43;97556.88;;;4.08;96.57
28510;BME280;15723;55.684;37.928;2023-03-12T02:51:09;97550.00;;;3.93;96.31
28510;BME280;15723;55.684;37.928;2023-03-12T02:53:36;97540.38;;;4.01;96.70
28510;BME280;15723;55.684;37.928;2023-03-12T02:56:02;97534.78;;;4.04;96.52
28510;BME280;15723;55.684;37.928;2023-03-12T02:58:30;97530.50;;;4.02;96.90
28510;BME280;15723;55.684;37.928;2023-03-12T03:00:57;97524.53;;;3.74;96.59
28510;BME280;15723;55.684;37.928;2023-03-12T03:03:24;97520.81;;;3.88;96.81
28510;BME280;15723;55.684;37.928;2023-03-12T03:05:50;97515.88;;;4.06;96.99
28510;BME280;15723;55.684;37.928;2023-03-12T03:08:16;97513.16;;;3.95;96.79
28510;BME280;15723;55.684;37.928;2023-03-12T03:10:43;97505.09;;;4.19;97.41
28510;BME280;15723;55.684;37.928;2023-03-12T03:13:09;97505.03;;;4.07;97.26
28510;BME280;15723;55.684;37.928;2023-03-12T03:15:35;97498.34;;;4.13;97.50
28510;BME280;15723;55.684;37.928;2023-03-12T03:18:04;97493.47;;;4.18;97.41
28510;BME280;15723;55.684;37.928;2023-03-12T03:20:31;97489.84;;;4.30;97.48
28510;BME280;15723;55.684;37.928;2023-03-12T03:22:57;97490.81;;;4.18;97.19
28510;BME280;15723;55.684;37.928;2023-03-12T03:25:24;97488.97;;;4.19;97.20
28510;BME280;15723;55.684;37.928;2023-03-12T03:27:50;97474.56;;;4.20;97.27
28510;BME280;15723;55.684;37.928;2023-03-12T03:30:17;97480.41;;;4.14;96.99
28510;BME280;15723;55.684;37.928;2023-03-12T03:32:48;97476.66;;;4.27;97.04
28510;BME280;15723;55.684;37.928;2023-03-12T03:35:16;97472.53;;;4.34;97.37
28510;BME280;15723;55.684;37.928;2023-03-12T03:37:43;97458.97;;;4.36;97.27
28510;BME280;15723;55.684;37.928;2023-03-12T03:40:10;97468.97;;;4.34;96.86
28510;BME280;15723;55.684;37.928;2023-03-12T03:42:38;97464.34;;;4.36;96.69
28510;BME280;15723;55.684;37.928;2023-03-12T03:45:06;97450.91;;;4.36;96.49
28510;BME280;15723;55.684;37.928;2023-03-12T03:47:34;97446.03;;;4.41;96.77
28510;BME280;15723;55.684;37.928;2023-03-12T03:50:02;97441.06;;;4.48;97.06
28510;BME280;15723;55.684;37.928;2023-03-12T03:52:30;97439.06;;;4.27;97.05
28510;BME280;15723;55.684;37.928;2023-03-12T03:54:56;97440.94;;;4.49;97.29
28510;BME280;15723;55.684;37.928;2023-03-12T03:57:25;97441.28;;;4.45;97.28
28510;BME280;15723;55.684;37.928;2023-03-12T03:59:52;97425.66;;;4.38;97.24
28510;BME280;15723;55.684;37.928;2023-03-12T04:02:18;97426.66;;;4.49;97.48
28510;BME280;15723;55.684;37.928;2023-03-12T04:04:45;97421.41;;;4.47;97.27
28510;BME280;15723;55.684;37.928;2023-03-12T04:07:11;97410.16;;;4.53;97.39
28510;BME280;15723;55.684;37.928;2023-03-12T04:09:38;97404.69;;;4.55;97.52
28510;BME280;15723;55.684;37.928;2023-03-12T04:12:05;97415.91;;;4.60;97.49
28510;BME280;15723;55.684;37.928;2023-03-12T04:14:32;97403.69;;;4.56;97.40
28510;BME280;15723;55.684;37.928;2023-03-12T04:16:58;97405.88;;;4.62;97.59
28510;BME280;15723;55.684;37.928;2023-03-12T04:19:25;97396.38;;;4.47;97.21
28510;BME280;15723;55.684;37.928;2023-03-12T04:21:53;97395.16;;;4.51;97.55
28510;BME280;15723;55.684;37.928;2023-03-12T04:24:19;97395.03;;;4.63;97.62
28510;BME280;15723;55.684;37.928;2023-03-12T04:26:47;97381.94;;;4.70;97.65
28510;BME280;15723;55.684;37.928;2023-03-12T04:29:15;97376.56;;;4.70;97.60
28510;BME280;15723;55.684;37.928;2023-03-12T04:31:41;97369.47;;;4.80;97.13
28510;BME280;15723;55.684;37.928;2023-03-12T04:34:07;97368.38;;;4.71;96.71
28510;BME280;15723;55.684;37.928;2023-03-12T04:36:34;97366.78;;;4.80;97.04
28510;BME280;15723;55.684;37.928;2023-03-12T04:39:01;97368.84;;;4.77;96.90
28510;BME280;15723;55.684;37.928;2023-03-12T04:41:35;97362.38;;;4.79;97.07
28510;BME280;15723;55.684;37.928;2023-03-12T04:44:10;97357.00;;;4.79;97.27
28510;BME280;15723;55.684;37.928;2023-03-12T04:46:36;97367.28;;;4.85;97.40
28510;BME280;15723;55.684;37.928;2023-03-12T04:49:03;97362.75;;;4.86;97.44
28510;BME280;15723;55.684;37.928;2023-03-12T04:51:32;97357.38;;;4.75;97.15
28510;BME280;15723;55.684;37.928;2023-03-12T04:54:00;97363.22;;;4.91;97.47
28510;BME280;15723;55.684;37.928;2023-03-12T04:56:27;97359.94;;;4.76;97.18
28510;BME280;15723;55.684;37.928;2023-03-12T04:58:54;97353.47;;;4.79;97.07
28510;BME280;15723;55.684;37.928;2023-03-12T05:03:49;97345.53;;;4.88;97.48
28510;BME280;15723;55.684;37.928;2023-03-12T05:06:15;97336.88;;;4.85;97.25
28510;BME280;15723;55.684;37.928;2023-03-12T05:08:42;97327.31;;;4.81;97.02
28510;BME280;15723;55.684;37.928;2023-03-12T05:11:09;97334.28;;;4.94;97.30
28510;BME280;15723;55.684;37.928;2023-03-12T05:13:35;97327.41;;;5.01;97.47
28510;BME280;15723;55.684;37.928;2023-03-12T05:16:02;97314.16;;;5.10;96.84
28510;BME280;15723;55.684;37.928;2023-03-12T05:18:29;97315.16;;;5.09;96.66
28510;BME280;15723;55.684;37.928;2023-03-12T05:21:08;97325.69;;;5.00;96.55
28510;BME280;15723;55.684;37.928;2023-03-12T05:23:36;97312.16;;;4.91;96.55
28510;BME280;15723;55.684;37.928;2023-03-12T05:26:05;97309.53;;;5.12;96.96
28510;BME280;15723;55.684;37.928;2023-03-12T05:28:32;97309.56;;;5.00;96.46
28510;BME280;15723;55.684;37.928;2023-03-12T05:31:08;97305.13;;;5.11;96.47
28510;BME280;15723;55.684;37.928;2023-03-12T05:33:40;97310.94;;;5.27;96.33
28510;BME280;15723;55.684;37.928;2023-03-12T05:36:08;97306.69;;;5.24;96.37
28510;BME280;15723;55.684;37.928;2023-03-12T05:38:37;97303.00;;;5.25;96.45
28510;BME280;15723;55.684;37.928;2023-03-12T05:41:05;97290.59;;;5.34;96.06
28510;BME280;15723;55.684;37.928;2023-03-12T05:43:34;97287.91;;;5.34;96.22
28510;BME280;15723;55.684;37.928;2023-03-12T05:46:03;97273.22;;;5.38;96.19
28510;BME280;15723;55.684;37.928;2023-03-12T05:48:31;97284.56;;;5.42;96.28
28510;BME280;15723;55.684;37.928;2023-03-12T05:50:57;97268.03;;;5.46;96.39
28510;BME280;15723;55.684;37.928;2023-03-12T05:53:23;97287.25;;;5.42;96.45
28510;BME280;15723;55.684;37.928;2023-03-12T05:55:49;97283.06;;;5.49;96.61
28510;BME280;15723;55.684;37.928;2023-03-12T05:58:16;97273.59;;;5.54;96.71
28510;BME280;15723;55.684;37.928;2023-03-12T06:00:44;97269.94;;;5.55;96.50
28510;BME280;15723;55.684;37.928;2023-03-12T06:03:12;97266.06;;;5.48;96.74
28510;BME280;15723;55.684;37.928;2023-03-12T06:05:38;97256.56;;;5.65;96.64
28510;BME280;15723;55.684;37.928;2023-03-12T06:08:04;97253.03;;;5.64;96.54
28510;BME280;15723;55.684;37.928;2023-03-12T06:10:31;97266.47;;;5.64;96.33
28510;BME280;15723;55.684;37.928;2023-03-12T06:12:58;97259.88;;;5.78;97.01
28510;BME280;15723;55.684;37.928;2023-03-12T06:15:24;97253.97;;;5.84;96.95
28510;BME280;15723;55.684;37.928;2023-03-12T06:17:50;97254.09;;;5.83;97.35
28510;BME280;15723;55.684;37.928;2023-03-12T06:20:17;97261.41;;;5.92;97.05
28510;BME280;15723;55.684;37.928;2023-03-12T06:22:43;97251.56;;;6.02;97.20
28510;BME280;15723;55.684;37.928;2023-03-12T06:25:11;97244.53;;;5.90;97.16
28510;BME280;15723;55.684;37.928;2023-03-12T06:27:39;97247.16;;;6.01;97.14
28510;BME280;15723;55.684;37.928;2023-03-12T06:30:06;97229.88;;;6.04;96.95
28510;BME280;15723;55.684;37.928;2023-03-12T06:32:33;97247.75;;;6.05;96.94
28510;BME280;15723;55.684;37.928;2023-03-12T06:34:59;97227.34;;;6.12;96.96
28510;BME280;15723;55.684;37.928;2023-03-12T06:37:26;97220.53;;;6.08;97.15
28510;BME280;15723;55.684;37.928;2023-03-12T06:39:52;97234.53;;;6.32;97.50
28510;BME280;15723;55.684;37.928;2023-03-12T06:42:20;97230.78;;;6.23;97.02
28510;BME280;15723;55.684;37.928;2023-03-12T06:44:48;97217.19;;;6.25;97.62
28510;BME280;15723;55.684;37.928;2023-03-12T06:47:14;97216.16;;;6.16;97.72
28510;BME280;15723;55.684;37.928;2023-03-12T06:49:41;97199.19;;;6.25;97.59
28510;BME280;15723;55.684;37.928;2023-03-12T06:52:07;97201.06;;;6.35;97.24
28510;BME280;15723;55.684;37.928;2023-03-12T06:54:33;97197.09;;;6.39;96.90
28510;BME280;15723;55.684;37.928;2023-03-12T06:56:59;97200.25;;;6.53;97.21
28510;BME280;15723;55.684;37.928;2023-03-12T06:59:26;97210.44;;;6.40;96.56
28510;BME280;15723;55.684;37.928;2023-03-12T07:01:53;97201.53;;;6.49;97.05
28510;BME280;15723;55.684;37.928;2023-03-12T07:04:19;97194.13;;;6.32;96.65
28510;BME280;15723;55.684;37.928;2023-03-12T07:06:45;97193.00;;;6.54;96.82
28510;BME280;15723;55.684;37.928;2023-03-12T07:09:17;97178.69;;;6.44;96.12
28510;BME280;15723;55.684;37.928;2023-03-12T07:11:43;97182.22;;;6.54;96.58
28510;BME280;15723;55.684;37.928;2023-03-12T07:14:10;97173.88;;;6.57;96.60
28510;BME280;15723;55.684;37.928;2023-03-12T07:16:36;97168.47;;;6.57;96.34
28510;BME280;15723;55.684;37.928;2023-03-12T07:19:03;97172.16;;;6.66;96.55
28510;BME280;15723;55.684;37.928;2023-03-12T07:21:29;97169.03;;;6.51;96.50
28510;BME280;15723;55.684;37.928;2023-03-12T07:23:56;97175.56;;;6.58;96.39
28510;BME280;15723;55.684;37.928;2023-03-12T07:26:23;97154.47;;;6.73;96.41
28510;BME280;15723;55.684;37.928;2023-03-12T07:28:49;97160.81;;;6.62;96.15
28510;BME280;15723;55.684;37.928;2023-03-12T07:31:15;97169.91;;;6.61;96.33
28510;BME280;15723;55.684;37.928;2023-03-12T07:33:41;97154.16;;;6.66;96.16
28510;BME280;15723;55.684;37.928;2023-03-12T07:36:08;97155.72;;;6.59;96.18
28510;BME280;15723;55.684;37.928;2023-03-12T07:38:34;97166.78;;;6.56;95.84
28510;BME280;15723;55.684;37.928;2023-03-12T07:41:00;97151.19;;;6.59;96.04
28510;BME280;15723;55.684;37.928;2023-03-12T07:43:27;97138.56;;;6.60;95.91
28510;BME280;15723;55.684;37.928;2023-03-12T07:45:53;97148.34;;;6.61;96.26
28510;BME280;15723;55.684;37.928;2023-03-12T07:48:20;97128.47;;;6.52;96.18
28510;BME280;15723;55.684;37.928;2023-03-12T07:50:46;97125.06;;;6.50;96.64
28510;BME280;15723;55.684;37.928;2023-03-12T07:53:13;97120.97;;;6.56;96.76
28510;BME280;15723;55.684;37.928;2023-03-12T07:55:39;97115.44;;;6.48;96.72
28510;BME280;15723;55.684;37.928;2023-03-12T07:58:05;97112.19;;;6.44;97.12
28510;BME280;15723;55.684;37.928;2023-03-12T08:00:32;97106.06;;;6.52;97.76
28510;BME280;15723;55.684;37.928;2023-03-12T08:02:58;97123.22;;;6.51;97.79
28510;BME280;15723;55.684;37.928;2023-03-12T08:05:24;97100.13;;;6.48;98.21
28510;BME280;15723;55.684;37.928;2023-03-12T08:07:51;97096.88;;;6.45;98.37
28510;BME280;15723;55.684;37.928;2023-03-12T08:10:19;97105.94;;;6.44;98.48
28510;BME280;15723;55.684;37.928;2023-03-12T08:12:47;97102.69;;;6.50;98.58
28510;BME280;15723;55.684;37.928;2023-03-12T08:15:13;97099.69;;;6.53;98.33
28510;BME280;15723;55.684;37.928;2023-03-12T08:17:40;97087.91;;;6.54;98.06
28510;BME280;15723;55.684;37.928;2023-03-12T08:20:07;97083.97;;;6.48;98.03
28510;BME280;15723;55.684;37.928;2023-03-12T08:22:36;97084.09;;;6.56;97.92
28510;BME280;15723;55.684;37.928;2023-03-12T08:25:03;97082.94;;;6.59;98.17
28510;BME280;15723;55.684;37.928;2023-03-12T08:27:30;97066.06;;;6.57;98.12
28510;BME280;15723;55.684;37.928;2023-03-12T08:29:56;97072.03;;;6.70;97.87
28510;BME280;15723;55.684;37.928;2023-03-12T08:32:23;97063.38;;;6.67;97.24
28510;BME280;15723;55.684;37.928;2023-03-12T08:34:49;97058.81;;;6.67;97.17
28510;BME280;15723;55.684;37.928;2023-03-12T08:37:15;97061.81;;;6.64;96.65
28510;BME280;15723;55.684;37.928;2023-03-12T08:39:42;97047.34;;;6.65;97.37
28510;BME280;15723;55.684;37.928;2023-03-12T08:42:08;97030.75;;;6.60;97.39
28510;BME280;15723;55.684;37.928;2023-03-12T08:44:35;97032.03;;;6.56;97.19
28510;BME280;15723;55.684;37.928;2023-03-12T08:47:02;97039.41;;;6.73;97.47
28510;BME280;15723;55.684;37.928;2023-03-12T08:49:29;97023.47;;;6.89;97.17
28510;BME280;15723;55.684;37.928;2023-03-12T08:51:55;97024.34;;;6.80;96.01
28510;BME280;15723;55.684;37.928;2023-03-12T08:54:21;97018.38;;;6.86;95.55
28510;BME280;15723;55.684;37.928;2023-03-12T08:56:51;97022.94;;;6.76;95.24
28510;BME280;15723;55.684;37.928;2023-03-12T08:59:19;97015.13;;;6.83;95.81
28510;BME280;15723;55.684;37.928;2023-03-12T09:01:45;97007.88;;;6.83;95.46
28510;BME280;15723;55.684;37.928;2023-03-12T09:04:12;97009.59;;;6.84;95.21
28510;BME280;15723;55.684;37.928;2023-03-12T09:06:38;97006.72;;;6.96;95.38
28510;BME280;15723;55.684;37.928;2023-03-12T09:09:05;96994.28;;;6.75;95.03
28510;BME280;15723;55.684;37.928;2023-03-12T09:11:35;97008.63;;;6.66;95.11
28510;BME280;15723;55.684;37.928;2023-03-12T09:14:02;96998.41;;;6.79;95.39
28510;BME280;15723;55.684;37.928;2023-03-12T09:16:28;96998.94;;;6.83;95.16
28510;BME280;15723;55.684;37.928;2023-03-12T09:18:56;96991.31;;;6.78;94.88
28510;BME280;15723;55.684;37.928;2023-03-12T09:21:22;96984.06;;;6.79;95.21
28510;BME280;15723;55.684;37.928;2023-03-12T09:23:48;96981.63;;;6.85;95.34
28510;BME280;15723;55.684;37.928;2023-03-12T09:26:15;96979.19;;;6.92;95.03
28510;BME280;15723;55.684;37.928;2023-03-12T09:28:41;96985.72;;;6.89;95.15
28510;BME280;15723;55.684;37.928;2023-03-12T09:31:09;96981.47;;;6.87;94.94
28510;BME280;15723;55.684;37.928;2023-03-12T09:33:36;96978.28;;;7.01;94.98
28510;BME280;15723;55.684;37.928;2023-03-12T09:36:03;96964.22;;;6.70;95.19
28510;BME280;15723;55.684;37.928;2023-03-12T09:38:29;96964.47;;;6.86;95.13
28510;BME280;15723;55.684;37.928;2023-03-12T09:40:57;96967.59;;;6.82;94.89
28510;BME280;15723;55.684;37.928;2023-03-12T09:43:33;96945.09;;;6.54;94.83
28510;BME280;15723;55.684;37.928;2023-03-12T09:46:03;96951.03;;;6.67;96.53
28510;BME280;15723;55.684;37.928;2023-03-12T09:48:36;96946.81;;;6.55;97.08
28510;BME280;15723;55.684;37.928;2023-03-12T09:56:02;96933.75;;;6.70;95.88
28510;BME280;15723;55.684;37.928;2023-03-12T09:58:36;96923.91;;;6.69;94.80
28510;BME280;15723;55.684;37.928;2023-03-12T10:06:19;96911.31;;;6.69;94.44
28510;BME280;15723;55.684;37.928;2023-03-12T10:11:42;96898.66;;;6.79;94.54
28510;BME280;15723;55.684;37.928;2023-03-12T10:14:34;96892.72;;;6.66;94.93
28510;BME280;15723;55.684;37.928;2023-03-12T10:19:50;96884.47;;;6.77;94.29
28510;BME280;15723;55.684;37.928;2023-03-12T10:24:57;96869.75;;;6.72;94.32
28510;BME280;15723;55.684;37.928;2023-03-12T10:27:28;96865.91;;;6.74;94.01
28510;BME280;15723;55.684;37.928;2023-03-12T10:29:56;96869.91;;;6.61;94.29
28510;BME280;15723;55.684;37.928;2023-03-12T10:32:29;96867.06;;;6.62;94.45
28510;BME280;15723;55.684;37.928;2023-03-12T10:35:25;96857.13;;;6.72;94.27
28510;BME280;15723;55.684;37.928;2023-03-12T10:37:53;96855.16;;;6.65;94.32
28510;BME280;15723;55.684;37.928;2023-03-12T10:40:23;96854.16;;;6.66;93.89
28510;BME280;15723;55.684;37.928;2023-03-12T10:42:51;96841.94;;;6.71;93.94
28510;BME280;15723;55.684;37.928;2023-03-12T10:47:49;96843.34;;;6.75;93.71
28510;BME280;15723;55.684;37.928;2023-03-12T10:50:22;96840.59;;;6.85;94.36
28510;BME280;15723;55.684;37.928;2023-03-12T10:52:52;96834.97;;;6.78;94.52
28510;BME280;15723;55.684;37.928;2023-03-12T10:55:37;96831.34;;;6.87;95.02
28510;BME280;15723;55.684;37.928;2023-03-12T10:58:04;96827.06;;;6.95;94.95
28510;BME280;15723;55.684;37.928;2023-03-12T11:00:31;96828.56;;;6.79;95.39
28510;BME280;15723;55.684;37.928;2023-03-12T11:03:03;96823.13;;;6.89;95.45
28510;BME280;15723;55.684;37.928;2023-03-12T11:07:58;96813.03;;;6.91;96.09
28510;BME280;15723;55.684;37.928;2023-03-12T11:10:42;96814.03;;;6.90;95.38
28510;BME280;15723;55.684;37.928;2023-03-12T11:13:31;96808.72;;;6.98;95.00
28510;BME280;15723;55.684;37.928;2023-03-12T11:16:00;96805.13;;;7.07;95.11
28510;BME280;15723;55.684;37.928;2023-03-12T11:18:35;96803.84;;;7.29;94.39
28510;BME280;15723;55.684;37.928;2023-03-12T11:23:39;96793.97;;;7.20;93.72
28510;BME280;15723;55.684;37.928;2023-03-12T11:26:18;96794.28;;;7.17;94.31
28510;BME280;15723;55.684;37.928;2023-03-12T11:28:55;96790.19;;;7.31;94.08
28510;BME280;15723;55.684;37.928;2023-03-12T11:31:33;96796.06;;;7.26;93.43
28510;BME280;15723;55.684;37.928;2023-03-12T11:34:06;96792.97;;;7.39;92.86
28510;BME280;15723;55.684;37.928;2023-03-12T11:37:14;96795.28;;;7.51;92.12
28510;BME280;15723;55.684;37.928;2023-03-12T11:51:09;96780.34;;;7.21;91.29
28510;BME280;15723;55.684;37.928;2023-03-12T11:56:41;96779.16;;;7.24;91.58
28510;BME280;15723;55.684;37.928;2023-03-12T12:00:08;96767.16;;;7.18;91.73
28510;BME280;15723;55.684;37.928;2023-03-12T12:08:21;96776.19;;;7.45;90.03
28510;BME280;15723;55.684;37.928;2023-03-12T12:33:45;96822.22;;;6.43;90.65
28510;BME280;15723;55.684;37.928;2023-03-12T12:36:16;96830.22;;;6.16;89.22
28510;BME280;15723;55.684;37.928;2023-03-12T12:38:47;96840.22;;;5.96;87.82
28510;BME280;15723;55.684;37.928;2023-03-12T12:41:25;96848.84;;;5.61;88.34
28510;BME280;15723;55.684;37.928;2023-03-12T12:43:56;96857.16;;;4.69;86.01
28510;BME280;15723;55.684;37.928;2023-03-12T12:46:33;96884.09;;;4.18;85.53
28510;BME280;15723;55.684;37.928;2023-03-12T12:51:46;96902.06;;;3.65;84.83
28510;BME280;15723;55.684;37.928;2023-03-12T12:59:31;96917.69;;;3.17;85.92
28510;BME280;15723;55.684;37.928;2023-03-12T13:02:00;96933.66;;;3.18;86.08
28510;BME280;15723;55.684;37.928;2023-03-12T13:04:32;96938.47;;;2.81;85.12
28510;BME280;15723;55.684;37.928;2023-03-12T13:09:52;96950.41;;;2.66;85.41
28510;BME280;15723;55.684;37.928;2023-03-12T13:12:56;96948.44;;;2.57;85.85
28510;BME280;15723;55.684;37.928;2023-03-12T13:18:04;96966.94;;;2.48;86.43
28510;BME280;15723;55.684;37.928;2023-03-12T13:21:05;96968.63;;;2.27;86.65
28510;BME280;15723;55.684;37.928;2023-03-12T13:33:50;97003.69;;;2.00;87.78
28510;BME280;15723;55.684;37.928;2023-03-12T13:38:54;97021.31;;;2.38;87.31
28510;BME280;15723;55.684;37.928;2023-03-12T13:41:47;97037.75;;;2.09;86.80
28510;BME280;15723;55.684;37.928;2023-03-12T13:46:59;97042.50;;;1.58;86.84
28510;BME280;15723;55.684;37.928;2023-03-12T13:49:54;97047.75;;;1.60;87.04
28510;BME280;15723;55.684;37.928;2023-03-12T13:52:28;97047.81;;;1.34;86.09
28510;BME280;15723;55.684;37.928;2023-03-12T13:55:14;97053.59;;;1.28;86.94
28510;BME280;15723;55.684;37.928;2023-03-12T13:57:53;97061.69;;;1.39;87.37
28510;BME280;15723;55.684;37.928;2023-03-12T14:00:26;97070.09;;;1.09;87.57
28510;BME280;15723;55.684;37.928;2023-03-12T14:03:39;97082.09;;;0.91;89.01
28510;BME280;15723;55.684;37.928;2023-03-12T14:18:50;97127.56;;;0.51;87.58
28510;BME280;15723;55.684;37.928;2023-03-12T14:21:19;97136.28;;;0.41;87.67
28510;BME280;15723;55.684;37.928;2023-03-12T14:23:55;97159.59;;;0.51;88.50
28510;BME280;15723;55.684;37.928;2023-03-12T14:26:29;97147.56;;;0.31;87.46
28510;BME280;15723;55.684;37.928;2023-03-12T14:29:00;97170.13;;;0.13;86.59
28510;BME280;15723;55.684;37.928;2023-03-12T14:31:30;97182.13;;;0.33;86.23
28510;BME280;15723;55.684;37.928;2023-03-12T14:34:14;97194.97;;;-0.13;85.50
28510;BME280;15723;55.684;37.928;2023-03-12T14:37:08;97195.19;;;-0.45;85.01
28510;BME280;15723;55.684;37.928;2023-03-12T14:39:48;97205.09;;;-0.47;85.40
28510;BME280;15723;55.684;37.928;2023-03-12T14:42:25;97214.06;;;-0.48;85.15
28510;BME280;15723;55.684;37.928;2023-03-12T14:45:01;97234.88;;;-0.40;84.39
28510;BME280;15723;55.684;37.928;2023-03-12T14:47:29;97226.78;;;-0.39;84.12
28510;BME280;15723;55.684;37.928;2023-03-12T14:49:56;97230.84;;;-0.05;84.49
28510;BME280;15723;55.684;37.928;2023-03-12T14:52:27;97238.84;;;-0.05;85.12
28510;BME280;15723;55.684;37.928;2023-03-12T14:55:02;97253.28;;;-0.36;83.41
28510;BME280;15723;55.684;37.928;2023-03-12T14:57:29;97270.28;;;-0.38;83.62
28510;BME280;15723;55.684;37.928;2023-03-12T14:59:57;97278.28;;;-0.38;83.15
28510;BME280;15723;55.684;37.928;2023-03-12T15:02:26;97283.34;;;-0.34;82.77
28510;BME280;15723;55.684;37.928;2023-03-12T15:04:57;97276.75;;;-0.42;81.96
28510;BME280;15723;55.684;37.928;2023-03-12T15:07:30;97296.09;;;-0.67;82.84